Flight Track Log - Related Links

Times and Time Zones

All times are in EDT time to prevent confusion due to time zone crossing. See the N249AJ flight status page for this flight to view local times or setup timezone preferences in your user account.

Time Position Orientation Groundspeed Altitude Reporting Facility
EDT Latitude Longitude Course Direction KTS MPH feet Rate Location/Type
Sun 03:44:39 PM 39.6192 -107.0194 261° West 214 246 10,600  Level Denver Center
Sun 03:45:41 PM 39.6789 -107.0525 337° Northwest 229 264 13,500 2,081 Climbing Denver Center
Sun 03:46:43 PM 39.7417 -107.0789 342° North 232 267 14,900 1,161 Climbing Denver Center
Sun 03:47:00 PM 40.0234 -106.4091 41° Northeast  Level FlightAware
Sun 03:47:45 PM 39.8197 -107.0358 23° Northeast 316 364 15,900  Level Denver Center
Sun 03:48:00 PM 40.0966 -106.3269 41° Northeast  Level FlightAware
Sun 03:48:47 PM 39.8314 -106.9058 83° East 361 415 16,800  Level Denver Center
Sun 03:49:00 PM 40.1703 -106.2455 38° Northeast  Level FlightAware
Sun 03:49:48 PM 39.8281 -106.7617 92° East 386 444 16,900  Level Denver Center
Sun 03:50:50 PM 39.8231 -106.5811 92° East 405 466 16,900  Level Denver Center
Sun 03:51:52 PM 39.8156 -106.4347 94° East 408 470 16,900  Level Denver Center
Sun 03:52:54 PM 39.8067 -106.2889 94° East 404 465 16,900 -48 Level Denver Center
Sun 03:53:56 PM 39.7942 -106.1467 96° East 400 460 16,800 -48 Descending Denver Center
Sun 03:54:58 PM 39.7792 -106.0106 98° East 391 450 16,800  Level Denver Center
Sun 03:55:59 PM 39.7683 -105.8761 96° East 379 436 16,800 49 Level Denver Center
Sun 03:57:01 PM 39.7447 -105.7186 101° East 387 445 16,900 48 Climbing Denver Center
Sun 03:58:03 PM 39.7161 -105.5825 105° East 391 450 16,900 -774 Level Denver Center
Sun 03:59:05 PM 39.6894 -105.4389 104° East 383 441 15,300 -1,366 Descending Denver Center
Sun 04:00:06 PM 39.6661 -105.3108 103° East 360 414 14,100 -1,512 Descending Denver Center
Sun 04:01:08 PM 39.6347 -105.2033 111° Southeast 315 362 12,200 -1,935 Descending Denver Center
Sun 04:02:10 PM 39.5842 -105.1031 123° Southeast 308 354 10,100 -1,742 Descending Denver Center
Sun 04:03:12 PM 39.5467 -105.0106 118° Southeast 293 337 8,600 -927 Descending Denver Center
Sun 04:04:13 PM 39.5089 -104.9250 120° Southeast 249 287 8,200 -732 Descending Denver Center
Sun 04:05:15 PM 39.5114 -104.8658 87° East 174 200 7,100 -1,065 Descending Denver Center
Sun 04:06:17 PM 39.5467 -104.8492 20° North 145 167 6,000 -1,065 Descending Denver Center
Sun 04:08:00 PM 39.5667 -104.8333 11° North  Level FlightAware
Sun 04:15:00 PM 39.5701 -104.8493 11° North  Level Estimated

Login

Don't have an account? Register now (free) for customized features, flight alerts, and more!